sensor_id;sensor_type;location;lat;lon;timestamp;P1;durP1;ratioP1;P2;durP2;ratioP2
41966;SDS011;27656;53.068;8.818;2024-02-26T00:00:23;13.43;;;9.50;;
41966;SDS011;27656;53.068;8.818;2024-02-26T00:02:50;13.67;;;9.37;;
41966;SDS011;27656;53.068;8.818;2024-02-26T00:05:16;13.70;;;10.23;;
41966;SDS011;27656;53.068;8.818;2024-02-26T00:07:43;14.50;;;10.03;;
41966;SDS011;27656;53.068;8.818;2024-02-26T00:10:10;13.60;;;10.03;;
41966;SDS011;27656;53.068;8.818;2024-02-26T00:12:36;13.70;;;10.10;;
41966;SDS011;27656;53.068;8.818;2024-02-26T00:15:06;13.20;;;9.70;;
41966;SDS011;27656;53.068;8.818;2024-02-26T00:17:33;13.53;;;9.20;;
41966;SDS011;27656;53.068;8.818;2024-02-26T00:20:00;15.00;;;9.93;;
41966;SDS011;27656;53.068;8.818;2024-02-26T00:22:28;16.70;;;11.00;;
41966;SDS011;27656;53.068;8.818;2024-02-26T00:24:54;13.10;;;10.13;;
41966;SDS011;27656;53.068;8.818;2024-02-26T00:27:21;13.17;;;10.03;;
41966;SDS011;27656;53.068;8.818;2024-02-26T00:29:48;14.43;;;10.37;;
41966;SDS011;27656;53.068;8.818;2024-02-26T00:32:14;16.87;;;11.20;;
41966;SDS011;27656;53.068;8.818;2024-02-26T00:34:41;18.40;;;11.03;;
41966;SDS011;27656;53.068;8.818;2024-02-26T00:37:07;15.30;;;10.97;;
41966;SDS011;27656;53.068;8.818;2024-02-26T00:39:34;16.20;;;10.97;;
41966;SDS011;27656;53.068;8.818;2024-02-26T00:42:00;15.90;;;11.07;;
41966;SDS011;27656;53.068;8.818;2024-02-26T00:44:27;15.47;;;11.20;;
41966;SDS011;27656;53.068;8.818;2024-02-26T00:46:54;16.47;;;11.70;;
41966;SDS011;27656;53.068;8.818;2024-02-26T00:49:20;16.07;;;12.07;;
41966;SDS011;27656;53.068;8.818;2024-02-26T00:51:47;17.17;;;11.87;;
41966;SDS011;27656;53.068;8.818;2024-02-26T00:54:14;17.47;;;11.50;;
41966;SDS011;27656;53.068;8.818;2024-02-26T00:56:40;16.67;;;11.57;;
41966;SDS011;27656;53.068;8.818;2024-02-26T00:59:07;18.00;;;12.97;;
41966;SDS011;27656;53.068;8.818;2024-02-26T01:01:33;18.43;;;13.50;;
41966;SDS011;27656;53.068;8.818;2024-02-26T01:03:59;22.83;;;14.57;;
41966;SDS011;27656;53.068;8.818;2024-02-26T01:06:26;22.43;;;14.43;;
41966;SDS011;27656;53.068;8.818;2024-02-26T01:08:53;20.00;;;13.70;;
41966;SDS011;27656;53.068;8.818;2024-02-26T01:11:19;18.87;;;13.00;;
41966;SDS011;27656;53.068;8.818;2024-02-26T01:13:46;19.33;;;13.50;;
41966;SDS011;27656;53.068;8.818;2024-02-26T01:16:12;17.20;;;12.40;;
41966;SDS011;27656;53.068;8.818;2024-02-26T01:18:39;18.27;;;13.07;;
41966;SDS011;27656;53.068;8.818;2024-02-26T01:21:05;16.60;;;11.63;;
41966;SDS011;27656;53.068;8.818;2024-02-26T01:23:35;17.23;;;12.40;;
41966;SDS011;27656;53.068;8.818;2024-02-26T01:26:01;15.73;;;12.00;;
41966;SDS011;27656;53.068;8.818;2024-02-26T01:28:29;17.77;;;12.07;;
41966;SDS011;27656;53.068;8.818;2024-02-26T01:30:55;20.57;;;13.77;;
41966;SDS011;27656;53.068;8.818;2024-02-26T01:33:21;18.83;;;13.33;;
41966;SDS011;27656;53.068;8.818;2024-02-26T01:35:48;18.10;;;13.07;;
41966;SDS011;27656;53.068;8.818;2024-02-26T01:38:15;19.47;;;13.17;;
41966;SDS011;27656;53.068;8.818;2024-02-26T01:40:41;18.33;;;12.73;;
41966;SDS011;27656;53.068;8.818;2024-02-26T01:43:08;17.57;;;13.40;;
41966;SDS011;27656;53.068;8.818;2024-02-26T01:45:34;19.80;;;13.50;;
41966;SDS011;27656;53.068;8.818;2024-02-26T01:48:01;20.20;;;14.17;;
41966;SDS011;27656;53.068;8.818;2024-02-26T01:50:28;19.73;;;13.07;;
41966;SDS011;27656;53.068;8.818;2024-02-26T01:52:54;20.50;;;13.93;;
41966;SDS011;27656;53.068;8.818;2024-02-26T01:55:23;16.43;;;12.10;;
41966;SDS011;27656;53.068;8.818;2024-02-26T01:57:51;17.83;;;13.03;;
41966;SDS011;27656;53.068;8.818;2024-02-26T02:00:19;19.17;;;12.53;;
41966;SDS011;27656;53.068;8.818;2024-02-26T02:02:47;19.00;;;11.93;;
41966;SDS011;27656;53.068;8.818;2024-02-26T02:05:15;19.93;;;12.47;;
41966;SDS011;27656;53.068;8.818;2024-02-26T02:07:43;17.07;;;12.03;;
41966;SDS011;27656;53.068;8.818;2024-02-26T02:10:10;18.63;;;11.77;;
41966;SDS011;27656;53.068;8.818;2024-02-26T02:12:36;18.70;;;12.47;;
41966;SDS011;27656;53.068;8.818;2024-02-26T02:15:06;16.93;;;12.10;;
41966;SDS011;27656;53.068;8.818;2024-02-26T02:17:33;16.90;;;11.80;;
41966;SDS011;27656;53.068;8.818;2024-02-26T02:20:00;18.40;;;12.37;;
41966;SDS011;27656;53.068;8.818;2024-02-26T02:22:27;17.40;;;11.57;;
41966;SDS011;27656;53.068;8.818;2024-02-26T02:24:54;18.53;;;12.27;;
41966;SDS011;27656;53.068;8.818;2024-02-26T02:27:20;16.73;;;11.33;;
41966;SDS011;27656;53.068;8.818;2024-02-26T02:29:47;20.03;;;11.97;;
41966;SDS011;27656;53.068;8.818;2024-02-26T02:32:15;17.37;;;11.77;;
41966;SDS011;27656;53.068;8.818;2024-02-26T02:34:43;19.40;;;12.67;;
41966;SDS011;27656;53.068;8.818;2024-02-26T02:37:10;17.90;;;12.40;;
41966;SDS011;27656;53.068;8.818;2024-02-26T02:39:36;20.87;;;12.40;;
41966;SDS011;27656;53.068;8.818;2024-02-26T02:42:03;18.60;;;12.80;;
41966;SDS011;27656;53.068;8.818;2024-02-26T02:44:30;19.13;;;12.63;;
41966;SDS011;27656;53.068;8.818;2024-02-26T02:46:56;18.47;;;12.13;;
41966;SDS011;27656;53.068;8.818;2024-02-26T02:49:22;20.87;;;12.27;;
41966;SDS011;27656;53.068;8.818;2024-02-26T02:51:50;20.80;;;12.63;;
41966;SDS011;27656;53.068;8.818;2024-02-26T02:54:16;21.73;;;12.87;;
41966;SDS011;27656;53.068;8.818;2024-02-26T02:56:43;18.93;;;12.33;;
41966;SDS011;27656;53.068;8.818;2024-02-26T02:59:10;18.57;;;12.40;;
41966;SDS011;27656;53.068;8.818;2024-02-26T03:01:36;22.47;;;12.50;;
41966;SDS011;27656;53.068;8.818;2024-02-26T03:04:03;20.50;;;12.90;;
41966;SDS011;27656;53.068;8.818;2024-02-26T03:06:29;17.53;;;12.50;;
41966;SDS011;27656;53.068;8.818;2024-02-26T03:08:56;19.77;;;11.93;;
41966;SDS011;27656;53.068;8.818;2024-02-26T03:11:22;20.10;;;12.10;;
41966;SDS011;27656;53.068;8.818;2024-02-26T03:13:49;17.50;;;12.43;;
41966;SDS011;27656;53.068;8.818;2024-02-26T03:16:16;19.20;;;12.93;;
41966;SDS011;27656;53.068;8.818;2024-02-26T03:18:43;18.90;;;12.67;;
41966;SDS011;27656;53.068;8.818;2024-02-26T03:21:10;22.60;;;13.70;;
41966;SDS011;27656;53.068;8.818;2024-02-26T03:23:37;21.77;;;13.03;;
41966;SDS011;27656;53.068;8.818;2024-02-26T03:26:04;20.43;;;13.10;;
41966;SDS011;27656;53.068;8.818;2024-02-26T03:28:31;21.97;;;13.57;;
41966;SDS011;27656;53.068;8.818;2024-02-26T03:30:59;21.43;;;12.97;;
41966;SDS011;27656;53.068;8.818;2024-02-26T03:33:27;19.50;;;12.60;;
41966;SDS011;27656;53.068;8.818;2024-02-26T03:35:54;20.37;;;13.43;;
41966;SDS011;27656;53.068;8.818;2024-02-26T03:38:20;23.17;;;13.43;;
41966;SDS011;27656;53.068;8.818;2024-02-26T03:40:47;22.70;;;13.73;;
41966;SDS011;27656;53.068;8.818;2024-02-26T03:43:13;24.87;;;14.47;;
41966;SDS011;27656;53.068;8.818;2024-02-26T03:45:40;24.53;;;14.53;;
41966;SDS011;27656;53.068;8.818;2024-02-26T03:48:06;22.47;;;14.47;;
41966;SDS011;27656;53.068;8.818;2024-02-26T03:50:33;23.17;;;14.07;;
41966;SDS011;27656;53.068;8.818;2024-02-26T03:53:00;23.87;;;15.23;;
41966;SDS011;27656;53.068;8.818;2024-02-26T03:55:27;26.07;;;15.03;;
41966;SDS011;27656;53.068;8.818;2024-02-26T03:57:53;23.63;;;15.13;;
41966;SDS011;27656;53.068;8.818;2024-02-26T04:00:20;20.17;;;14.07;;
41966;SDS011;27656;53.068;8.818;2024-02-26T04:02:48;21.60;;;13.50;;
41966;SDS011;27656;53.068;8.818;2024-02-26T04:05:15;21.10;;;14.03;;
41966;SDS011;27656;53.068;8.818;2024-02-26T04:07:42;21.93;;;13.90;;
41966;SDS011;27656;53.068;8.818;2024-02-26T04:10:09;23.43;;;13.97;;
41966;SDS011;27656;53.068;8.818;2024-02-26T04:12:40;22.80;;;14.10;;
41966;SDS011;27656;53.068;8.818;2024-02-26T04:15:08;21.60;;;13.40;;
41966;SDS011;27656;53.068;8.818;2024-02-26T04:17:35;25.13;;;14.70;;
41966;SDS011;27656;53.068;8.818;2024-02-26T04:20:03;21.83;;;13.63;;
41966;SDS011;27656;53.068;8.818;2024-02-26T04:22:32;23.13;;;13.80;;
41966;SDS011;27656;53.068;8.818;2024-02-26T04:24:59;21.57;;;13.57;;
41966;SDS011;27656;53.068;8.818;2024-02-26T04:27:25;20.90;;;13.37;;
41966;SDS011;27656;53.068;8.818;2024-02-26T04:29:52;20.87;;;13.00;;
41966;SDS011;27656;53.068;8.818;2024-02-26T04:32:19;20.90;;;13.80;;
41966;SDS011;27656;53.068;8.818;2024-02-26T04:34:45;21.67;;;13.17;;
41966;SDS011;27656;53.068;8.818;2024-02-26T04:37:12;22.13;;;13.73;;
41966;SDS011;27656;53.068;8.818;2024-02-26T04:39:38;20.20;;;13.70;;
41966;SDS011;27656;53.068;8.818;2024-02-26T04:42:05;19.70;;;12.90;;
41966;SDS011;27656;53.068;8.818;2024-02-26T04:44:31;21.33;;;13.20;;
41966;SDS011;27656;53.068;8.818;2024-02-26T04:46:58;22.73;;;14.70;;
41966;SDS011;27656;53.068;8.818;2024-02-26T04:49:25;19.87;;;13.30;;
41966;SDS011;27656;53.068;8.818;2024-02-26T04:51:52;21.20;;;12.47;;
41966;SDS011;27656;53.068;8.818;2024-02-26T04:54:18;19.60;;;13.53;;
41966;SDS011;27656;53.068;8.818;2024-02-26T04:56:45;24.50;;;13.80;;
41966;SDS011;27656;53.068;8.818;2024-02-26T04:59:11;22.20;;;13.90;;
41966;SDS011;27656;53.068;8.818;2024-02-26T05:01:39;23.27;;;13.97;;
41966;SDS011;27656;53.068;8.818;2024-02-26T05:04:06;20.90;;;13.30;;
41966;SDS011;27656;53.068;8.818;2024-02-26T05:06:32;24.43;;;15.83;;
41966;SDS011;27656;53.068;8.818;2024-02-26T05:08:59;22.37;;;13.53;;
41966;SDS011;27656;53.068;8.818;2024-02-26T05:11:25;22.70;;;14.73;;
41966;SDS011;27656;53.068;8.818;2024-02-26T05:13:52;22.07;;;13.80;;
41966;SDS011;27656;53.068;8.818;2024-02-26T05:16:18;22.83;;;14.13;;
41966;SDS011;27656;53.068;8.818;2024-02-26T05:18:47;23.40;;;14.20;;
41966;SDS011;27656;53.068;8.818;2024-02-26T05:21:14;22.13;;;13.40;;
41966;SDS011;27656;53.068;8.818;2024-02-26T05:23:40;21.63;;;14.10;;
41966;SDS011;27656;53.068;8.818;2024-02-26T05:26:09;22.23;;;13.77;;
41966;SDS011;27656;53.068;8.818;2024-02-26T05:28:35;23.37;;;13.70;;
41966;SDS011;27656;53.068;8.818;2024-02-26T05:31:03;22.10;;;13.37;;
41966;SDS011;27656;53.068;8.818;2024-02-26T05:33:30;23.23;;;14.47;;
41966;SDS011;27656;53.068;8.818;2024-02-26T05:35:57;21.00;;;12.97;;
41966;SDS011;27656;53.068;8.818;2024-02-26T05:38:30;20.83;;;13.83;;
41966;SDS011;27656;53.068;8.818;2024-02-26T05:40:58;25.00;;;14.50;;
41966;SDS011;27656;53.068;8.818;2024-02-26T05:43:28;21.53;;;12.90;;
41966;SDS011;27656;53.068;8.818;2024-02-26T05:45:54;22.67;;;14.47;;
41966;SDS011;27656;53.068;8.818;2024-02-26T05:48:21;20.83;;;13.33;;
41966;SDS011;27656;53.068;8.818;2024-02-26T05:50:48;22.87;;;13.93;;
41966;SDS011;27656;53.068;8.818;2024-02-26T05:53:14;21.60;;;13.73;;
41966;SDS011;27656;53.068;8.818;2024-02-26T05:55:41;25.17;;;14.67;;
41966;SDS011;27656;53.068;8.818;2024-02-26T05:58:07;23.13;;;14.40;;
41966;SDS011;27656;53.068;8.818;2024-02-26T06:00:34;27.93;;;14.57;;
41966;SDS011;27656;53.068;8.818;2024-02-26T06:03:00;27.60;;;16.70;;
41966;SDS011;27656;53.068;8.818;2024-02-26T06:05:28;26.90;;;16.50;;
41966;SDS011;27656;53.068;8.818;2024-02-26T06:07:55;31.47;;;17.33;;
41966;SDS011;27656;53.068;8.818;2024-02-26T06:10:21;31.20;;;17.47;;
41966;SDS011;27656;53.068;8.818;2024-02-26T06:12:48;37.70;;;19.07;;
41966;SDS011;27656;53.068;8.818;2024-02-26T06:15:14;33.83;;;17.97;;
41966;SDS011;27656;53.068;8.818;2024-02-26T06:17:41;33.93;;;18.50;;
41966;SDS011;27656;53.068;8.818;2024-02-26T06:20:08;37.87;;;19.93;;
41966;SDS011;27656;53.068;8.818;2024-02-26T06:22:40;36.43;;;18.87;;
41966;SDS011;27656;53.068;8.818;2024-02-26T06:25:07;35.77;;;19.33;;
41966;SDS011;27656;53.068;8.818;2024-02-26T06:27:34;38.97;;;19.23;;
41966;SDS011;27656;53.068;8.818;2024-02-26T06:30:01;39.60;;;20.90;;
41966;SDS011;27656;53.068;8.818;2024-02-26T06:32:28;34.90;;;20.07;;
41966;SDS011;27656;53.068;8.818;2024-02-26T06:34:55;44.33;;;20.93;;
41966;SDS011;27656;53.068;8.818;2024-02-26T06:37:22;39.00;;;21.33;;
41966;SDS011;27656;53.068;8.818;2024-02-26T06:39:49;47.17;;;23.77;;
41966;SDS011;27656;53.068;8.818;2024-02-26T06:42:18;48.23;;;23.13;;
41966;SDS011;27656;53.068;8.818;2024-02-26T06:44:45;47.43;;;22.87;;
41966;SDS011;27656;53.068;8.818;2024-02-26T06:47:11;48.73;;;22.17;;
41966;SDS011;27656;53.068;8.818;2024-02-26T06:49:38;44.40;;;22.23;;
41966;SDS011;27656;53.068;8.818;2024-02-26T06:52:05;42.10;;;22.47;;
41966;SDS011;27656;53.068;8.818;2024-02-26T06:54:32;47.23;;;22.80;;
41966;SDS011;27656;53.068;8.818;2024-02-26T06:56:59;56.00;;;24.70;;
41966;SDS011;27656;53.068;8.818;2024-02-26T06:59:26;50.07;;;22.67;;
41966;SDS011;27656;53.068;8.818;2024-02-26T07:01:53;45.20;;;21.63;;
41966;SDS011;27656;53.068;8.818;2024-02-26T07:04:20;50.17;;;21.97;;
41966;SDS011;27656;53.068;8.818;2024-02-26T07:06:46;46.27;;;21.37;;
41966;SDS011;27656;53.068;8.818;2024-02-26T07:09:13;48.67;;;23.93;;
41966;SDS011;27656;53.068;8.818;2024-02-26T07:11:40;47.43;;;22.87;;
41966;SDS011;27656;53.068;8.818;2024-02-26T07:14:10;50.67;;;23.20;;
41966;SDS011;27656;53.068;8.818;2024-02-26T07:16:37;47.70;;;22.23;;
41966;SDS011;27656;53.068;8.818;2024-02-26T07:19:03;49.60;;;24.27;;
41966;SDS011;27656;53.068;8.818;2024-02-26T07:21:30;51.87;;;22.77;;
41966;SDS011;27656;53.068;8.818;2024-02-26T07:23:57;53.73;;;23.97;;
41966;SDS011;27656;53.068;8.818;2024-02-26T07:26:24;55.23;;;25.53;;
41966;SDS011;27656;53.068;8.818;2024-02-26T07:28:52;53.20;;;24.50;;
41966;SDS011;27656;53.068;8.818;2024-02-26T07:31:18;51.03;;;24.33;;
41966;SDS011;27656;53.068;8.818;2024-02-26T07:33:45;52.87;;;23.73;;
41966;SDS011;27656;53.068;8.818;2024-02-26T07:36:12;53.53;;;22.93;;
41966;SDS011;27656;53.068;8.818;2024-02-26T07:38:39;55.90;;;24.70;;
41966;SDS011;27656;53.068;8.818;2024-02-26T07:41:09;54.63;;;23.67;;
41966;SDS011;27656;53.068;8.818;2024-02-26T07:43:36;58.00;;;28.30;;
41966;SDS011;27656;53.068;8.818;2024-02-26T07:46:02;55.47;;;26.47;;
41966;SDS011;27656;53.068;8.818;2024-02-26T07:48:29;57.37;;;25.03;;
41966;SDS011;27656;53.068;8.818;2024-02-26T07:50:56;60.00;;;24.70;;
41966;SDS011;27656;53.068;8.818;2024-02-26T07:53:22;60.50;;;28.73;;
41966;SDS011;27656;53.068;8.818;2024-02-26T07:55:49;57.43;;;24.20;;
41966;SDS011;27656;53.068;8.818;2024-02-26T07:58:15;59.57;;;28.40;;
41966;SDS011;27656;53.068;8.818;2024-02-26T08:00:42;57.40;;;25.13;;
41966;SDS011;27656;53.068;8.818;2024-02-26T08:03:08;59.80;;;25.43;;
41966;SDS011;27656;53.068;8.818;2024-02-26T08:05:35;56.97;;;25.03;;
41966;SDS011;27656;53.068;8.818;2024-02-26T08:08:02;60.90;;;25.40;;
41966;SDS011;27656;53.068;8.818;2024-02-26T08:10:29;64.97;;;28.53;;
41966;SDS011;27656;53.068;8.818;2024-02-26T08:12:58;56.33;;;25.33;;
41966;SDS011;27656;53.068;8.818;2024-02-26T08:15:31;55.67;;;26.20;;
41966;SDS011;27656;53.068;8.818;2024-02-26T08:18:01;62.43;;;25.30;;
41966;SDS011;27656;53.068;8.818;2024-02-26T08:20:30;57.90;;;25.07;;
41966;SDS011;27656;53.068;8.818;2024-02-26T08:22:58;53.77;;;25.63;;
41966;SDS011;27656;53.068;8.818;2024-02-26T08:25:24;55.83;;;24.90;;
41966;SDS011;27656;53.068;8.818;2024-02-26T08:27:51;52.33;;;24.97;;
41966;SDS011;27656;53.068;8.818;2024-02-26T08:30:18;53.57;;;25.57;;
41966;SDS011;27656;53.068;8.818;2024-02-26T08:32:45;49.80;;;23.03;;
41966;SDS011;27656;53.068;8.818;2024-02-26T08:35:16;54.07;;;23.93;;
41966;SDS011;27656;53.068;8.818;2024-02-26T08:37:46;48.60;;;22.50;;
41966;SDS011;27656;53.068;8.818;2024-02-26T08:40:14;49.33;;;25.10;;
41966;SDS011;27656;53.068;8.818;2024-02-26T08:42:41;52.73;;;24.57;;
41966;SDS011;27656;53.068;8.818;2024-02-26T08:45:08;51.40;;;23.40;;
41966;SDS011;27656;53.068;8.818;2024-02-26T08:47:35;51.73;;;24.03;;
41966;SDS011;27656;53.068;8.818;2024-02-26T08:50:01;48.10;;;24.37;;
41966;SDS011;27656;53.068;8.818;2024-02-26T08:52:28;45.13;;;22.47;;
41966;SDS011;27656;53.068;8.818;2024-02-26T08:54:55;44.10;;;22.50;;
41966;SDS011;27656;53.068;8.818;2024-02-26T08:57:22;44.33;;;22.20;;
41966;SDS011;27656;53.068;8.818;2024-02-26T08:59:48;42.17;;;23.17;;
41966;SDS011;27656;53.068;8.818;2024-02-26T09:02:15;43.80;;;21.63;;
41966;SDS011;27656;53.068;8.818;2024-02-26T09:04:42;42.33;;;20.47;;
41966;SDS011;27656;53.068;8.818;2024-02-26T09:07:08;43.33;;;21.77;;
41966;SDS011;27656;53.068;8.818;2024-02-26T09:09:35;41.00;;;20.30;;
41966;SDS011;27656;53.068;8.818;2024-02-26T09:12:02;40.90;;;20.90;;
41966;SDS011;27656;53.068;8.818;2024-02-26T09:14:29;39.97;;;20.67;;
41966;SDS011;27656;53.068;8.818;2024-02-26T09:16:55;40.93;;;20.60;;
41966;SDS011;27656;53.068;8.818;2024-02-26T09:19:23;39.53;;;19.47;;
41966;SDS011;27656;53.068;8.818;2024-02-26T09:21:52;43.90;;;20.30;;
41966;SDS011;27656;53.068;8.818;2024-02-26T09:24:20;33.77;;;18.43;;
41966;SDS011;27656;53.068;8.818;2024-02-26T09:26:47;38.33;;;19.20;;
41966;SDS011;27656;53.068;8.818;2024-02-26T09:29:14;34.53;;;19.97;;
41966;SDS011;27656;53.068;8.818;2024-02-26T09:31:43;36.03;;;19.53;;
41966;SDS011;27656;53.068;8.818;2024-02-26T09:34:13;35.57;;;18.33;;
41966;SDS011;27656;53.068;8.818;2024-02-26T09:36:40;32.70;;;19.10;;
41966;SDS011;27656;53.068;8.818;2024-02-26T09:39:07;36.33;;;18.67;;
41966;SDS011;27656;53.068;8.818;2024-02-26T09:41:37;30.07;;;17.23;;
41966;SDS011;27656;53.068;8.818;2024-02-26T09:44:04;34.30;;;16.80;;
41966;SDS011;27656;53.068;8.818;2024-02-26T09:46:31;30.37;;;16.87;;
41966;SDS011;27656;53.068;8.818;2024-02-26T09:48:58;26.83;;;14.97;;
41966;SDS011;27656;53.068;8.818;2024-02-26T09:51:25;25.53;;;14.60;;
41966;SDS011;27656;53.068;8.818;2024-02-26T09:53:52;30.40;;;16.33;;
41966;SDS011;27656;53.068;8.818;2024-02-26T09:56:19;30.83;;;16.73;;
41966;SDS011;27656;53.068;8.818;2024-02-26T09:58:47;26.27;;;15.00;;
41966;SDS011;27656;53.068;8.818;2024-02-26T10:01:20;25.03;;;14.53;;
41966;SDS011;27656;53.068;8.818;2024-02-26T10:03:55;26.10;;;14.90;;
41966;SDS011;27656;53.068;8.818;2024-02-26T10:06:25;24.67;;;13.37;;
41966;SDS011;27656;53.068;8.818;2024-02-26T10:08:52;21.33;;;13.53;;
41966;SDS011;27656;53.068;8.818;2024-02-26T10:11:20;23.17;;;13.33;;
41966;SDS011;27656;53.068;8.818;2024-02-26T10:13:48;21.47;;;12.93;;
41966;SDS011;27656;53.068;8.818;2024-02-26T10:16:15;21.00;;;13.13;;
41966;SDS011;27656;53.068;8.818;2024-02-26T10:18:46;23.77;;;12.73;;
41966;SDS011;27656;53.068;8.818;2024-02-26T10:21:24;18.83;;;11.07;;
41966;SDS011;27656;53.068;8.818;2024-02-26T10:23:51;17.97;;;10.53;;
41966;SDS011;27656;53.068;8.818;2024-02-26T10:26:18;21.03;;;12.43;;
41966;SDS011;27656;53.068;8.818;2024-02-26T10:28:45;17.07;;;11.13;;
41966;SDS011;27656;53.068;8.818;2024-02-26T10:31:16;19.30;;;11.77;;
41966;SDS011;27656;53.068;8.818;2024-02-26T10:33:43;18.27;;;11.70;;
41966;SDS011;27656;53.068;8.818;2024-02-26T10:36:11;17.30;;;11.07;;
41966;SDS011;27656;53.068;8.818;2024-02-26T10:38:38;18.30;;;11.90;;
41966;SDS011;27656;53.068;8.818;2024-02-26T10:41:09;18.80;;;10.70;;
41966;SDS011;27656;53.068;8.818;2024-02-26T10:43:46;16.10;;;10.27;;
41966;SDS011;27656;53.068;8.818;2024-02-26T10:46:13;17.63;;;10.50;;
41966;SDS011;27656;53.068;8.818;2024-02-26T10:48:40;15.63;;;10.23;;
41966;SDS011;27656;53.068;8.818;2024-02-26T10:51:15;15.63;;;10.87;;
41966;SDS011;27656;53.068;8.818;2024-02-26T10:53:44;16.23;;;10.37;;
41966;SDS011;27656;53.068;8.818;2024-02-26T10:56:13;17.47;;;10.67;;
41966;SDS011;27656;53.068;8.818;2024-02-26T10:58:42;14.83;;;9.83;;
41966;SDS011;27656;53.068;8.818;2024-02-26T11:01:11;16.87;;;9.90;;
41966;SDS011;27656;53.068;8.818;2024-02-26T11:03:39;16.30;;;9.33;;
41966;SDS011;27656;53.068;8.818;2024-02-26T11:06:07;17.30;;;10.23;;
41966;SDS011;27656;53.068;8.818;2024-02-26T11:08:34;14.47;;;9.73;;
41966;SDS011;27656;53.068;8.818;2024-02-26T11:11:02;17.20;;;9.77;;
41966;SDS011;27656;53.068;8.818;2024-02-26T11:13:28;14.17;;;9.53;;
41966;SDS011;27656;53.068;8.818;2024-02-26T11:16:00;16.47;;;10.10;;
41966;SDS011;27656;53.068;8.818;2024-02-26T11:18:27;14.13;;;9.10;;
41966;SDS011;27656;53.068;8.818;2024-02-26T11:20:55;15.30;;;9.53;;
41966;SDS011;27656;53.068;8.818;2024-02-26T11:23:23;15.47;;;9.50;;
41966;SDS011;27656;53.068;8.818;2024-02-26T11:25:54;15.97;;;10.47;;
41966;SDS011;27656;53.068;8.818;2024-02-26T11:28:25;14.40;;;9.63;;
41966;SDS011;27656;53.068;8.818;2024-02-26T11:30:54;16.20;;;10.30;;
41966;SDS011;27656;53.068;8.818;2024-02-26T11:33:21;16.70;;;10.37;;
41966;SDS011;27656;53.068;8.818;2024-02-26T11:35:48;15.43;;;10.00;;
41966;SDS011;27656;53.068;8.818;2024-02-26T11:38:19;18.97;;;10.60;;
41966;SDS011;27656;53.068;8.818;2024-02-26T11:40:50;18.63;;;11.83;;
41966;SDS011;27656;53.068;8.818;2024-02-26T11:43:16;20.03;;;11.93;;
41966;SDS011;27656;53.068;8.818;2024-02-26T11:48:14;19.20;;;12.30;;
41966;SDS011;27656;53.068;8.818;2024-02-26T11:50:42;19.13;;;12.17;;
41966;SDS011;27656;53.068;8.818;2024-02-26T11:56:11;21.87;;;11.57;;
41966;SDS011;27656;53.068;8.818;2024-02-26T11:58:39;20.23;;;11.33;;
41966;SDS011;27656;53.068;8.818;2024-02-26T12:04:04;18.27;;;11.00;;
41966;SDS011;27656;53.068;8.818;2024-02-26T12:06:31;15.13;;;10.27;;
41966;SDS011;27656;53.068;8.818;2024-02-26T12:09:07;19.90;;;11.10;;
41966;SDS011;27656;53.068;8.818;2024-02-26T12:11:42;18.30;;;10.40;;
41966;SDS011;27656;53.068;8.818;2024-02-26T12:14:09;15.90;;;10.47;;
41966;SDS011;27656;53.068;8.818;2024-02-26T12:16:37;17.07;;;10.50;;
41966;SDS011;27656;53.068;8.818;2024-02-26T12:19:08;16.67;;;11.03;;
41966;SDS011;27656;53.068;8.818;2024-02-26T12:21:36;17.00;;;10.53;;
41966;SDS011;27656;53.068;8.818;2024-02-26T12:24:10;16.37;;;11.07;;
41966;SDS011;27656;53.068;8.818;2024-02-26T12:26:39;14.93;;;10.10;;
41966;SDS011;27656;53.068;8.818;2024-02-26T12:29:06;16.00;;;9.63;;
41966;SDS011;27656;53.068;8.818;2024-02-26T12:31:33;15.23;;;9.63;;
41966;SDS011;27656;53.068;8.818;2024-02-26T12:34:00;15.33;;;9.87;;
41966;SDS011;27656;53.068;8.818;2024-02-26T12:36:27;17.70;;;10.93;;
41966;SDS011;27656;53.068;8.818;2024-02-26T12:38:54;16.30;;;10.33;;
41966;SDS011;27656;53.068;8.818;2024-02-26T12:41:21;15.20;;;10.13;;
41966;SDS011;27656;53.068;8.818;2024-02-26T12:43:48;17.97;;;10.63;;
41966;SDS011;27656;53.068;8.818;2024-02-26T12:46:16;17.63;;;10.37;;
41966;SDS011;27656;53.068;8.818;2024-02-26T12:48:43;16.27;;;10.07;;
41966;SDS011;27656;53.068;8.818;2024-02-26T12:51:11;15.17;;;9.80;;
41966;SDS011;27656;53.068;8.818;2024-02-26T12:53:40;17.23;;;10.33;;
41966;SDS011;27656;53.068;8.818;2024-02-26T12:56:07;16.27;;;9.97;;
41966;SDS011;27656;53.068;8.818;2024-02-26T12:58:35;15.77;;;10.40;;
41966;SDS011;27656;53.068;8.818;2024-02-26T13:01:04;15.10;;;9.80;;
41966;SDS011;27656;53.068;8.818;2024-02-26T13:03:34;15.50;;;9.80;;
41966;SDS011;27656;53.068;8.818;2024-02-26T13:06:02;15.90;;;10.07;;
41966;SDS011;27656;53.068;8.818;2024-02-26T13:08:31;15.13;;;9.40;;
41966;SDS011;27656;53.068;8.818;2024-02-26T13:10:58;18.23;;;10.20;;
41966;SDS011;27656;53.068;8.818;2024-02-26T13:13:25;15.67;;;10.00;;
41966;SDS011;27656;53.068;8.818;2024-02-26T13:16:02;14.17;;;9.90;;
41966;SDS011;27656;53.068;8.818;2024-02-26T13:18:34;16.03;;;10.07;;
41966;SDS011;27656;53.068;8.818;2024-02-26T13:21:13;14.83;;;10.30;;
41966;SDS011;27656;53.068;8.818;2024-02-26T13:23:42;14.77;;;9.60;;
41966;SDS011;27656;53.068;8.818;2024-02-26T13:26:11;14.87;;;10.23;;
41966;SDS011;27656;53.068;8.818;2024-02-26T13:28:39;12.73;;;8.77;;
41966;SDS011;27656;53.068;8.818;2024-02-26T13:31:06;14.37;;;9.67;;
41966;SDS011;27656;53.068;8.818;2024-02-26T13:33:34;12.63;;;8.60;;
41966;SDS011;27656;53.068;8.818;2024-02-26T13:36:01;12.37;;;8.07;;
41966;SDS011;27656;53.068;8.818;2024-02-26T13:38:28;14.40;;;8.47;;
41966;SDS011;27656;53.068;8.818;2024-02-26T13:40:54;15.07;;;9.80;;
41966;SDS011;27656;53.068;8.818;2024-02-26T13:43:21;14.53;;;9.63;;
41966;SDS011;27656;53.068;8.818;2024-02-26T13:45:48;13.67;;;8.87;;
41966;SDS011;27656;53.068;8.818;2024-02-26T13:48:15;13.80;;;8.57;;
41966;SDS011;27656;53.068;8.818;2024-02-26T13:50:43;16.40;;;10.17;;
41966;SDS011;27656;53.068;8.818;2024-02-26T13:53:11;12.83;;;8.77;;
41966;SDS011;27656;53.068;8.818;2024-02-26T13:55:39;15.00;;;9.17;;
41966;SDS011;27656;53.068;8.818;2024-02-26T13:58:10;11.87;;;8.53;;
41966;SDS011;27656;53.068;8.818;2024-02-26T14:00:38;13.30;;;9.10;;
41966;SDS011;27656;53.068;8.818;2024-02-26T14:03:05;14.73;;;8.97;;
41966;SDS011;27656;53.068;8.818;2024-02-26T14:05:32;13.17;;;9.10;;
41966;SDS011;27656;53.068;8.818;2024-02-26T14:07:58;13.43;;;9.37;;
41966;SDS011;27656;53.068;8.818;2024-02-26T14:10:25;12.70;;;8.47;;
41966;SDS011;27656;53.068;8.818;2024-02-26T14:12:52;13.97;;;8.93;;
41966;SDS011;27656;53.068;8.818;2024-02-26T14:15:19;13.57;;;9.33;;
41966;SDS011;27656;53.068;8.818;2024-02-26T14:17:45;14.37;;;9.37;;
41966;SDS011;27656;53.068;8.818;2024-02-26T14:20:20;13.47;;;8.97;;
41966;SDS011;27656;53.068;8.818;2024-02-26T14:22:47;13.97;;;8.87;;
41966;SDS011;27656;53.068;8.818;2024-02-26T14:25:14;15.10;;;9.13;;
41966;SDS011;27656;53.068;8.818;2024-02-26T14:27:41;12.67;;;8.10;;
41966;SDS011;27656;53.068;8.818;2024-02-26T14:30:07;13.50;;;8.77;;
41966;SDS011;27656;53.068;8.818;2024-02-26T14:32:34;12.70;;;8.93;;